createdAt,value
2018-02-16T00:03:13.500Z,4.90
2018-02-16T00:05:41.811Z,4.90
2018-02-16T00:08:09.386Z,4.90
2018-02-16T00:10:36.948Z,4.90
2018-02-16T00:13:04.498Z,4.90
2018-02-16T00:15:32.157Z,4.90
2018-02-16T00:17:59.699Z,5.00
2018-02-16T00:20:27.300Z,4.90
2018-02-16T00:22:54.840Z,5.00
2018-02-16T00:25:22.776Z,5.00
2018-02-16T00:27:50.404Z,5.00
2018-02-16T00:30:17.965Z,5.00
2018-02-16T00:32:45.547Z,5.00
2018-02-16T00:35:13.088Z,4.90
2018-02-16T00:37:40.661Z,5.00
2018-02-16T00:40:08.241Z,5.00
2018-02-16T00:42:36.644Z,5.00
2018-02-16T00:45:04.185Z,5.00
2018-02-16T00:47:32.183Z,5.00
2018-02-16T00:49:59.732Z,5.00
2018-02-16T00:52:27.271Z,5.00
2018-02-16T00:54:54.844Z,5.00
2018-02-16T00:57:22.384Z,5.00
2018-02-16T00:59:49.989Z,5.00
2018-02-16T01:02:17.514Z,5.00
2018-02-16T01:04:45.105Z,5.00
2018-02-16T01:07:12.641Z,5.00
2018-02-16T01:09:40.208Z,5.00
2018-02-16T01:12:07.745Z,5.00
2018-02-16T01:14:35.648Z,5.00
2018-02-16T01:17:03.189Z,5.00
2018-02-16T01:19:30.720Z,5.00
2018-02-16T01:21:59.100Z,5.00
2018-02-16T01:24:27.413Z,5.00
2018-02-16T01:26:55.049Z,5.00
2018-02-16T01:29:22.592Z,5.00
2018-02-16T01:31:50.943Z,5.10
2018-02-16T01:34:18.488Z,5.10
2018-02-16T01:36:46.390Z,5.10
2018-02-16T01:39:14.698Z,5.00
2018-02-16T01:41:42.264Z,5.00
2018-02-16T01:44:09.859Z,5.00
2018-02-16T01:46:37.485Z,5.00
2018-02-16T01:49:05.056Z,5.10
2018-02-16T01:51:32.603Z,5.00
2018-02-16T01:54:00.175Z,5.10
2018-02-16T01:56:27.731Z,5.10
2018-02-16T01:58:55.324Z,5.10
2018-02-16T02:01:22.902Z,5.10
2018-02-16T02:03:51.562Z,5.10
2018-02-16T02:06:19.112Z,5.10
2018-02-16T02:08:46.643Z,5.10
2018-02-16T02:11:14.261Z,5.10
2018-02-16T02:13:41.796Z,5.10
2018-02-16T02:16:09.373Z,5.10
2018-02-16T02:18:36.905Z,5.10
2018-02-16T02:21:04.476Z,5.10
2018-02-16T02:23:32.016Z,5.10
2018-02-16T02:25:59.889Z,5.10
2018-02-16T02:28:27.529Z,5.10
2018-02-16T02:30:55.064Z,5.10
2018-02-16T02:33:23.413Z,5.10
2018-02-16T02:35:50.994Z,5.10
2018-02-16T02:38:19.832Z,5.10
2018-02-16T02:40:47.433Z,5.10
2018-02-16T02:43:14.972Z,5.10
2018-02-16T02:45:42.557Z,5.10
2018-02-16T02:48:10.097Z,5.10
2018-02-16T02:50:37.693Z,5.10
2018-02-16T02:53:05.218Z,5.10
2018-02-16T02:55:32.797Z,5.00
2018-02-16T02:58:00.328Z,5.00
2018-02-16T03:00:27.929Z,5.00
2018-02-16T03:02:55.469Z,5.00
2018-02-16T03:05:23.849Z,5.00
2018-02-16T03:07:51.384Z,5.00
2018-02-16T03:10:19.277Z,4.90
2018-02-16T03:12:47.590Z,4.90
2018-02-16T03:15:15.130Z,4.90
2018-02-16T03:17:42.703Z,4.90
2018-02-16T03:20:10.233Z,4.90
2018-02-16T03:22:37.893Z,4.90
2018-02-16T03:25:05.450Z,4.90
2018-02-16T03:27:33.786Z,4.80
2018-02-16T03:30:01.393Z,4.80
2018-02-16T03:32:30.045Z,4.80
2018-02-16T03:34:57.673Z,4.80
2018-02-16T03:37:25.205Z,4.80
2018-02-16T03:39:53.554Z,4.80
2018-02-16T03:42:21.102Z,4.80
2018-02-16T03:44:48.692Z,4.70
2018-02-16T03:47:16.236Z,4.70
2018-02-16T03:49:43.833Z,4.70
2018-02-16T03:52:11.378Z,4.70
2018-02-16T03:54:40.009Z,4.60
2018-02-16T03:57:07.562Z,4.60
2018-02-16T03:59:35.104Z,4.60
2018-02-16T04:02:02.695Z,4.70
2018-02-16T04:04:30.238Z,4.70
2018-02-16T04:06:58.112Z,4.70
2018-02-16T04:09:25.651Z,4.60
2018-02-16T04:11:53.183Z,4.60
2018-02-16T04:14:20.756Z,4.70
2018-02-16T04:16:48.294Z,4.60
2018-02-16T04:19:15.920Z,4.60
2018-02-16T04:21:43.448Z,4.60
2018-02-16T04:24:11.021Z,4.60
2018-02-16T04:26:38.556Z,4.60
2018-02-16T04:29:06.458Z,4.60
2018-02-16T04:31:33.989Z,4.50
2018-02-16T04:34:01.528Z,4.50
2018-02-16T04:36:29.112Z,4.50
2018-02-16T04:38:56.653Z,4.50
2018-02-16T04:41:24.231Z,4.50
2018-02-16T04:43:51.769Z,4.50
2018-02-16T04:46:19.759Z,4.50
2018-02-16T04:48:47.319Z,4.50
2018-02-16T04:51:14.865Z,4.50
2018-02-16T04:53:42.444Z,4.50
2018-02-16T04:56:09.984Z,4.40
2018-02-16T04:58:37.760Z,4.40
2018-02-16T05:01:05.328Z,4.40
2018-02-16T05:03:32.927Z,4.40
2018-02-16T05:06:00.476Z,4.30
2018-02-16T05:08:28.421Z,4.20
2018-02-16T05:10:55.953Z,4.20
2018-02-16T05:13:23.492Z,4.20
2018-02-16T05:15:51.075Z,4.10
2018-02-16T05:18:18.611Z,4.10
2018-02-16T05:20:46.177Z,4.00
2018-02-16T05:23:14.479Z,3.90
2018-02-16T05:25:42.053Z,3.90
2018-02-16T05:28:09.588Z,3.80
2018-02-16T05:30:37.772Z,3.80
2018-02-16T05:33:05.313Z,3.70
2018-02-16T05:35:32.872Z,3.70
2018-02-16T05:38:00.484Z,3.70
2018-02-16T05:40:28.044Z,3.60
2018-02-16T05:42:55.710Z,3.60
2018-02-16T05:45:23.245Z,3.50
2018-02-16T05:47:51.229Z,3.50
2018-02-16T05:50:18.774Z,3.50
2018-02-16T05:52:46.312Z,3.40
2018-02-16T05:55:13.936Z,3.40
2018-02-16T05:57:41.528Z,3.40
2018-02-16T06:00:09.418Z,3.40
2018-02-16T06:02:36.968Z,3.40
2018-02-16T06:05:04.501Z,3.30
2018-02-16T06:07:32.848Z,3.30
2018-02-16T06:10:00.391Z,3.30
2018-02-16T06:12:27.967Z,3.30
2018-02-16T06:14:55.543Z,3.30
2018-02-16T06:17:23.897Z,3.30
2018-02-16T06:19:51.461Z,3.30
2018-02-16T06:22:21.663Z,3.30
2018-02-16T06:24:49.257Z,3.30
2018-02-16T06:27:16.800Z,3.30
2018-02-16T06:29:44.384Z,3.30
2018-02-16T06:32:11.925Z,3.30
2018-02-16T06:34:39.559Z,3.30
2018-02-16T06:37:07.111Z,3.30
2018-02-16T06:39:34.681Z,3.30
2018-02-16T06:42:02.214Z,3.30
2018-02-16T06:44:30.070Z,3.30
2018-02-16T06:46:57.636Z,3.30
2018-02-16T06:49:25.176Z,3.30
2018-02-16T06:51:53.517Z,3.30
2018-02-16T06:54:21.052Z,3.40
2018-02-16T06:56:48.629Z,3.40
2018-02-16T06:59:16.168Z,3.40
2018-02-16T07:01:43.732Z,3.40
2018-02-16T07:04:11.281Z,3.40
2018-02-16T07:06:38.853Z,3.40
2018-02-16T07:09:06.412Z,3.50
2018-02-16T07:11:34.280Z,3.50
2018-02-16T07:14:01.845Z,3.60
2018-02-16T07:16:29.384Z,3.60
2018-02-16T07:18:56.968Z,3.60
2018-02-16T07:21:24.509Z,3.70
2018-02-16T07:23:52.078Z,3.70
2018-02-16T07:26:19.625Z,3.80
2018-02-16T07:28:47.349Z,3.80
2018-02-16T07:31:14.966Z,3.90
2018-02-16T07:33:42.558Z,4.00
2018-02-16T07:36:10.888Z,4.00
2018-02-16T07:38:38.425Z,4.00
2018-02-16T07:41:05.999Z,4.10
2018-02-16T07:43:33.559Z,4.10
2018-02-16T07:46:01.358Z,4.20
2018-02-16T07:48:28.908Z,4.20
2018-02-16T07:50:56.748Z,4.30
2018-02-16T07:53:24.287Z,4.40
2018-02-16T07:55:51.822Z,4.40
2018-02-16T07:58:20.167Z,4.60
2018-02-16T08:00:47.712Z,4.60
2018-02-16T08:03:15.281Z,4.60
2018-02-16T08:05:42.817Z,4.70
2018-02-16T08:08:10.701Z,4.80
2018-02-16T08:10:38.254Z,4.90
2018-02-16T08:13:05.808Z,4.90
2018-02-16T08:15:33.384Z,5.00
2018-02-16T08:18:00.927Z,5.10
2018-02-16T08:20:28.497Z,5.10
2018-02-16T08:22:56.041Z,5.20
2018-02-16T08:25:23.619Z,5.30
2018-02-16T08:27:51.203Z,5.40
2018-02-16T08:30:19.249Z,5.50
2018-02-16T08:32:46.799Z,5.50
2018-02-16T08:35:14.328Z,5.60
2018-02-16T08:37:42.039Z,5.70
2018-02-16T08:40:09.597Z,5.80
2018-02-16T08:42:37.197Z,5.90
2018-02-16T08:45:05.515Z,6.10
2018-02-16T08:47:33.088Z,6.10
2018-02-16T08:50:00.681Z,6.20
2018-02-16T08:52:28.526Z,6.30
2018-02-16T08:54:56.076Z,6.30
2018-02-16T08:57:23.905Z,6.40
2018-02-16T08:59:51.484Z,6.50
2018-02-16T09:02:19.025Z,6.60
2018-02-16T09:04:48.131Z,6.70
2018-02-16T09:07:15.688Z,6.80
2018-02-16T09:09:43.232Z,6.90
2018-02-16T09:12:10.985Z,7.00
2018-02-16T09:14:39.283Z,7.20
2018-02-16T09:17:08.736Z,7.10
2018-02-16T09:19:36.276Z,7.20
2018-02-16T09:22:04.251Z,7.30
2018-02-16T09:24:31.812Z,7.40
2018-02-16T09:26:59.610Z,7.40
2018-02-16T09:29:27.968Z,7.60
2018-02-16T09:31:55.517Z,7.60
2018-02-16T09:34:23.110Z,7.60
2018-02-16T09:36:51.049Z,7.80
2018-02-16T09:39:19.564Z,7.80
2018-02-16T09:41:47.896Z,8.00
2018-02-16T09:44:15.866Z,8.00
2018-02-16T09:46:43.418Z,8.10
2018-02-16T09:49:11.020Z,8.20
2018-02-16T09:51:39.365Z,8.30
2018-02-16T09:54:06.913Z,8.30
2018-02-16T09:56:34.497Z,8.40
2018-02-16T09:59:02.036Z,8.50
2018-02-16T10:01:29.901Z,8.50
2018-02-16T10:03:57.448Z,8.50
2018-02-16T10:06:24.999Z,8.60
2018-02-16T10:08:52.578Z,8.70
2018-02-16T10:11:20.225Z,8.80
2018-02-16T10:13:47.868Z,8.90
2018-02-16T10:16:15.421Z,8.90
2018-02-16T10:18:43.012Z,9.00
2018-02-16T10:21:10.762Z,9.10
2018-02-16T10:23:38.345Z,9.10
2018-02-16T10:26:05.901Z,9.20
2018-02-16T10:28:33.748Z,9.20
2018-02-16T10:31:01.354Z,9.20
2018-02-16T10:33:28.920Z,9.30
2018-02-16T10:35:56.497Z,9.30
2018-02-16T10:38:24.218Z,9.30
2018-02-16T10:40:51.811Z,9.30
2018-02-16T10:43:19.373Z,9.40
2018-02-16T10:45:48.012Z,9.50
2018-02-16T10:48:15.548Z,9.40
2018-02-16T10:50:43.106Z,9.50
2018-02-16T10:53:10.684Z,9.50
2018-02-16T10:55:38.227Z,9.50
2018-02-16T10:58:06.130Z,9.50
2018-02-16T11:00:39.225Z,9.50
2018-02-16T11:03:12.712Z,9.50
2018-02-16T11:05:46.685Z,9.40
2018-02-16T11:08:20.126Z,9.40
2018-02-16T11:10:47.677Z,9.40
2018-02-16T11:13:15.237Z,9.30
2018-02-16T11:15:42.819Z,9.30
2018-02-16T11:18:10.357Z,9.30
2018-02-16T11:20:37.991Z,9.20
2018-02-16T11:23:05.589Z,9.20
2018-02-16T11:25:34.955Z,9.00
2018-02-16T11:28:02.493Z,9.00
2018-02-16T11:30:30.409Z,9.00
2018-02-16T11:32:58.094Z,8.90
2018-02-16T11:35:25.650Z,8.80
2018-02-16T11:37:53.232Z,8.70
2018-02-16T11:40:20.918Z,8.60
2018-02-16T11:42:49.270Z,8.50
2018-02-16T11:45:16.933Z,8.50
2018-02-16T11:47:45.266Z,8.40
2018-02-16T11:50:12.818Z,8.40
2018-02-16T11:52:40.411Z,8.30
2018-02-16T11:55:07.952Z,8.30
2018-02-16T11:57:35.536Z,8.30
2018-02-16T12:00:03.111Z,8.20
2018-02-16T12:02:31.751Z,8.20
2018-02-16T12:04:59.393Z,8.20
2018-02-16T12:07:26.932Z,8.20
2018-02-16T12:09:54.506Z,8.10
2018-02-16T12:12:22.063Z,8.10
2018-02-16T12:14:49.665Z,8.10
2018-02-16T12:17:17.225Z,8.00
2018-02-16T12:19:45.359Z,8.00
2018-02-16T12:22:12.889Z,8.00
2018-02-16T12:24:40.440Z,7.90
2018-02-16T12:27:08.210Z,7.90
2018-02-16T12:29:36.509Z,8.00
2018-02-16T12:32:04.097Z,8.00
2018-02-16T12:34:31.738Z,7.90
2018-02-16T12:36:59.356Z,8.00
2018-02-16T12:39:26.888Z,8.00
2018-02-16T12:41:54.488Z,7.90
2018-02-16T12:44:22.020Z,7.90
2018-02-16T12:46:49.855Z,7.90
2018-02-16T12:49:17.387Z,7.90
2018-02-16T12:51:44.933Z,7.90
2018-02-16T12:54:12.622Z,7.90
2018-02-16T12:56:40.180Z,7.90
2018-02-16T12:59:07.793Z,7.90
2018-02-16T13:01:35.336Z,7.90
2018-02-16T13:04:03.066Z,7.90
2018-02-16T13:06:30.736Z,8.00
2018-02-16T13:08:58.319Z,7.90
2018-02-16T13:11:25.917Z,7.90
2018-02-16T13:13:53.492Z,7.90
2018-02-16T13:16:21.022Z,7.90
2018-02-16T13:18:49.058Z,7.90
2018-02-16T13:21:16.556Z,7.90
2018-02-16T13:23:44.853Z,7.90
2018-02-16T13:26:12.444Z,7.90
2018-02-16T13:28:39.992Z,7.90
2018-02-16T13:31:07.979Z,7.90
2018-02-16T13:33:35.530Z,7.80
2018-02-16T13:36:03.079Z,7.80
2018-02-16T13:38:30.653Z,7.70
2018-02-16T13:40:58.211Z,7.70
2018-02-16T13:43:25.789Z,7.60
2018-02-16T13:45:53.326Z,7.60
2018-02-16T13:48:20.916Z,7.60
2018-02-16T13:50:48.461Z,7.60
2018-02-16T13:53:16.575Z,7.60
2018-02-16T13:55:44.126Z,7.60
2018-02-16T13:58:11.689Z,7.50
2018-02-16T14:00:40.050Z,7.60
2018-02-16T14:03:08.311Z,7.60
2018-02-16T14:05:35.915Z,7.60
2018-02-16T14:08:04.554Z,7.60
2018-02-16T14:10:32.146Z,7.60
2018-02-16T14:12:59.707Z,7.60
2018-02-16T14:15:28.038Z,7.50
2018-02-16T14:17:55.568Z,7.60
2018-02-16T14:20:23.565Z,7.50
2018-02-16T14:22:51.117Z,7.50
2018-02-16T14:25:18.671Z,7.50
2018-02-16T14:27:46.249Z,7.40
2018-02-16T14:30:13.806Z,7.40
2018-02-16T14:32:41.780Z,7.40
2018-02-16T14:35:09.317Z,7.40
2018-02-16T14:37:36.874Z,7.30
2018-02-16T14:40:04.517Z,7.30
2018-02-16T14:42:32.202Z,7.30
2018-02-16T14:44:59.790Z,7.30
2018-02-16T14:47:27.324Z,7.30
2018-02-16T14:49:55.208Z,7.20
2018-02-16T14:52:22.750Z,7.20
2018-02-16T14:54:50.306Z,7.20
2018-02-16T14:57:17.897Z,7.20
2018-02-16T14:59:45.532Z,7.20
2018-02-16T15:02:13.135Z,7.10
2018-02-16T15:04:40.730Z,7.10
2018-02-16T15:07:09.090Z,7.10
2018-02-16T15:09:37.391Z,7.00
2018-02-16T15:12:04.985Z,7.00
2018-02-16T15:14:32.565Z,7.00
2018-02-16T15:17:00.528Z,7.00
2018-02-16T15:19:28.081Z,7.00
2018-02-16T15:21:55.651Z,7.00
2018-02-16T15:24:23.247Z,6.90
2018-02-16T15:26:50.800Z,6.90
2018-02-16T15:29:18.390Z,6.90
2018-02-16T15:31:45.947Z,7.00
2018-02-16T15:34:13.527Z,7.00
2018-02-16T15:36:41.068Z,6.90
2018-02-16T15:39:08.948Z,6.90
2018-02-16T15:41:36.509Z,6.80
2018-02-16T15:44:04.061Z,6.80
2018-02-16T15:46:31.641Z,6.70
2018-02-16T15:48:59.193Z,6.60
2018-02-16T15:51:26.912Z,6.60
2018-02-16T15:53:55.338Z,6.50
2018-02-16T15:56:23.748Z,6.40
2018-02-16T15:58:51.281Z,6.40
2018-02-16T16:01:18.856Z,6.40
2018-02-16T16:03:46.386Z,6.40
2018-02-16T16:06:13.943Z,6.30
2018-02-16T16:08:41.540Z,6.30
2018-02-16T16:11:09.183Z,6.20
2018-02-16T16:13:36.774Z,6.20
2018-02-16T16:16:05.079Z,6.20
2018-02-16T16:18:32.669Z,6.20
2018-02-16T16:21:00.217Z,6.20
2018-02-16T16:23:28.102Z,6.20
2018-02-16T16:25:55.656Z,6.20
2018-02-16T16:28:23.219Z,6.20
2018-02-16T16:30:50.801Z,6.10
2018-02-16T16:33:18.348Z,6.10
2018-02-16T16:35:45.920Z,6.00
2018-02-16T16:38:13.463Z,5.90
2018-02-16T16:40:41.044Z,5.90
2018-02-16T16:43:08.588Z,5.80
2018-02-16T16:45:36.162Z,5.80
2018-02-16T16:48:03.710Z,5.70
2018-02-16T16:50:31.538Z,5.70
2018-02-16T16:52:59.111Z,5.60
2018-02-16T16:55:27.082Z,5.50
2018-02-16T16:57:54.625Z,5.50
2018-02-16T17:00:22.225Z,5.40
2018-02-16T17:02:49.847Z,5.40
2018-02-16T17:05:17.507Z,5.30
2018-02-16T17:07:45.106Z,5.30
2018-02-16T17:10:12.640Z,5.20
2018-02-16T17:12:40.212Z,5.20
2018-02-16T17:15:07.752Z,5.10
2018-02-16T17:17:35.802Z,5.00
2018-02-16T17:20:03.341Z,5.00
2018-02-16T17:22:31.681Z,4.90
2018-02-16T17:24:59.285Z,4.90
2018-02-16T17:27:27.777Z,4.80
2018-02-16T17:29:55.365Z,4.80
2018-02-16T17:32:22.910Z,4.80
2018-02-16T17:34:50.533Z,4.80
2018-02-16T17:37:18.845Z,4.70
2018-02-16T17:39:46.801Z,4.70
2018-02-16T17:42:14.338Z,4.70
2018-02-16T17:44:41.881Z,4.70
2018-02-16T17:47:09.503Z,4.60
2018-02-16T17:49:37.058Z,4.60
2018-02-16T17:52:04.645Z,4.60
2018-02-16T17:54:32.185Z,4.60
2018-02-16T17:56:59.756Z,4.50
2018-02-16T17:59:27.363Z,4.50
2018-02-16T18:01:55.725Z,4.50
2018-02-16T18:04:23.310Z,4.50
2018-02-16T18:06:51.176Z,4.50
2018-02-16T18:09:19.493Z,4.40
2018-02-16T18:11:47.047Z,4.40
2018-02-16T18:14:14.696Z,4.40
2018-02-16T18:16:42.462Z,4.30
2018-02-16T18:19:10.053Z,4.30
2018-02-16T18:21:37.591Z,4.30
2018-02-16T18:24:05.169Z,4.20
2018-02-16T18:26:32.729Z,4.20
2018-02-16T18:29:00.305Z,4.20
2018-02-16T18:31:27.919Z,4.10
2018-02-16T18:33:55.461Z,4.20
2018-02-16T18:36:23.038Z,4.10
2018-02-16T18:38:50.588Z,4.10
2018-02-16T18:41:18.183Z,4.10
2018-02-16T18:43:45.737Z,4.10
2018-02-16T18:46:13.382Z,4.10
2018-02-16T18:48:40.946Z,4.10
2018-02-16T18:51:08.538Z,4.10
2018-02-16T18:53:36.161Z,4.10
2018-02-16T18:56:04.151Z,4.10
2018-02-16T18:58:31.688Z,4.00
2018-02-16T19:00:59.376Z,4.00
2018-02-16T19:03:26.966Z,4.00
2018-02-16T19:05:55.280Z,4.00
2018-02-16T19:08:22.893Z,4.00
2018-02-16T19:10:50.436Z,4.00
2018-02-16T19:13:18.618Z,4.00
2018-02-16T19:15:46.169Z,4.00
2018-02-16T19:18:13.881Z,4.00
2018-02-16T19:20:41.670Z,4.00
2018-02-16T19:23:09.223Z,4.00
2018-02-16T19:25:37.065Z,3.90
2018-02-16T19:28:05.380Z,3.90
2018-02-16T19:30:32.931Z,3.90
2018-02-16T19:33:00.538Z,3.90
2018-02-16T19:35:28.078Z,3.90
2018-02-16T19:37:55.661Z,4.00
2018-02-16T19:40:23.197Z,4.00
2018-02-16T19:42:50.772Z,4.10
2018-02-16T19:45:18.329Z,4.10
2018-02-16T19:47:46.285Z,4.20
2018-02-16T19:50:13.858Z,4.20
2018-02-16T19:52:41.405Z,4.30
2018-02-16T19:55:08.994Z,4.20
2018-02-16T19:57:36.565Z,4.20
2018-02-16T20:00:04.897Z,4.20
2018-02-16T20:02:32.503Z,4.20
2018-02-16T20:05:00.070Z,4.10
2018-02-16T20:07:27.623Z,4.10
2018-02-16T20:09:55.667Z,4.00
2018-02-16T20:12:23.215Z,4.00
2018-02-16T20:14:50.769Z,4.00
2018-02-16T20:17:18.344Z,4.00
2018-02-16T20:19:45.888Z,4.00
2018-02-16T20:22:13.493Z,3.90
2018-02-16T20:24:41.805Z,3.90
2018-02-16T20:27:10.510Z,3.90
2018-02-16T20:29:38.036Z,3.90
2018-02-16T20:32:05.584Z,3.90
2018-02-16T20:34:33.302Z,4.00
2018-02-16T20:37:00.842Z,4.00
2018-02-16T20:39:28.419Z,4.00
2018-02-16T20:41:55.966Z,4.10
2018-02-16T20:44:23.548Z,4.10
2018-02-16T20:46:51.099Z,4.10
2018-02-16T20:49:18.717Z,4.20
2018-02-16T20:51:46.280Z,4.20
2018-02-16T20:54:14.189Z,4.20
2018-02-16T20:56:41.740Z,4.30
2018-02-16T20:59:09.268Z,4.30
2018-02-16T21:01:36.857Z,4.30
2018-02-16T21:04:04.465Z,4.30
2018-02-16T21:06:32.855Z,4.30
2018-02-16T21:09:00.509Z,4.30
2018-02-16T21:11:28.105Z,4.30
2018-02-16T21:13:56.409Z,4.30
2018-02-16T21:16:24.010Z,4.20
2018-02-16T21:18:51.586Z,4.20
2018-02-16T21:21:19.189Z,4.20
2018-02-16T21:23:46.762Z,4.20
2018-02-16T21:26:15.159Z,4.20
2018-02-16T21:28:43.003Z,4.10
2018-02-16T21:31:10.560Z,4.10
2018-02-16T21:33:38.112Z,4.10
2018-02-16T21:36:05.701Z,4.00
2018-02-16T21:38:34.004Z,4.00
2018-02-16T21:41:01.907Z,4.00
2018-02-16T21:43:29.441Z,4.00
2018-02-16T21:45:56.981Z,3.90
2018-02-16T21:48:24.564Z,4.00
2018-02-16T21:50:52.126Z,3.90
2018-02-16T21:53:19.711Z,3.90
2018-02-16T21:55:47.262Z,3.90
2018-02-16T21:58:14.857Z,3.90
2018-02-16T22:00:43.156Z,3.90
2018-02-16T22:03:10.733Z,3.90
2018-02-16T22:05:38.280Z,3.90
2018-02-16T22:08:06.345Z,3.90
2018-02-16T22:10:33.888Z,3.90
2018-02-16T22:13:01.473Z,3.90
2018-02-16T22:15:29.082Z,3.90
2018-02-16T22:17:56.632Z,3.90
2018-02-16T22:20:24.221Z,3.90
2018-02-16T22:22:52.561Z,4.00
2018-02-16T22:25:20.180Z,3.90
2018-02-16T22:27:48.562Z,4.00
2018-02-16T22:30:16.457Z,4.00
2018-02-16T22:32:43.996Z,4.00
2018-02-16T22:35:11.663Z,4.10
2018-02-16T22:37:39.250Z,4.00
2018-02-16T22:40:06.788Z,4.00
2018-02-16T22:42:34.395Z,4.00
2018-02-16T22:45:01.930Z,4.00
2018-02-16T22:47:29.610Z,4.10
2018-02-16T22:49:57.142Z,4.10
2018-02-16T22:52:24.754Z,4.10
2018-02-16T22:54:53.041Z,4.30
2018-02-16T22:57:20.972Z,4.10
2018-02-16T22:59:48.518Z,4.20
2018-02-16T23:02:16.073Z,4.20
2018-02-16T23:04:43.705Z,4.30
2018-02-16T23:07:11.247Z,4.30
2018-02-16T23:09:38.819Z,4.30
2018-02-16T23:12:07.077Z,4.40
2018-02-16T23:14:34.668Z,4.40
2018-02-16T23:17:02.215Z,4.40
2018-02-16T23:19:30.111Z,4.50
2018-02-16T23:21:59.392Z,4.50
2018-02-16T23:24:26.941Z,4.50
2018-02-16T23:26:54.539Z,4.50
2018-02-16T23:29:22.117Z,4.50
2018-02-16T23:31:49.697Z,4.50
2018-02-16T23:34:17.993Z,4.40
2018-02-16T23:36:45.840Z,4.40
2018-02-16T23:39:14.178Z,4.40
2018-02-16T23:41:41.885Z,4.40
2018-02-16T23:44:09.455Z,4.30
2018-02-16T23:46:36.997Z,4.30
2018-02-16T23:49:04.578Z,4.30
2018-02-16T23:51:32.118Z,4.30
2018-02-16T23:53:59.709Z,4.20
2018-02-16T23:56:27.258Z,4.20
2018-02-16T23:58:55.309Z,4.20
